Time,TemperatureF,DewpointF,PressureIn,WindDirection,WindDirectionDegrees,WindSpeedMPH,WindSpeedGustMPH,Humidity,HourlyPrecipIn,Conditions,Clouds,dailyrainin,SoftwareType,DateUTC
2013-01-27 00:00:00,19.8,11.2,30.41,SSE,158,8.3,8.3,69,0.00,,,0.00,WUHU216HW,2013-01-27 06:00:00,
2013-01-27 00:05:00,19.8,11.2,30.41,SSE,158,8.3,8.3,69,0.00,,,0.00,WUHU216HW,2013-01-27 06:05:00,
2013-01-27 00:30:00,20.0,11.0,30.40,ESE,113,3.8,3.8,68,0.00,,,0.00,WUHU216HW,2013-01-27 06:30:00,
2013-01-27 00:35:00,20.0,11.0,30.40,ESE,113,3.8,3.8,68,0.00,,,0.00,WUHU216HW,2013-01-27 06:35:00,
2013-01-27 01:00:00,20.2,11.2,30.40,SSW,203,1.1,1.1,68,0.00,,,0.00,WUHU216HW,2013-01-27 07:00:00,
2013-01-27 01:05:00,20.2,11.2,30.40,SSW,203,1.1,1.1,68,0.00,,,0.00,WUHU216HW,2013-01-27 07:05:00,
2013-01-27 01:30:00,20.2,11.9,30.40,SW,225,1.8,1.8,70,0.00,,,0.00,WUHU216HW,2013-01-27 07:30:00,
2013-01-27 01:35:00,20.2,11.9,30.40,SW,225,1.8,1.8,70,0.00,,,0.00,WUHU216HW,2013-01-27 07:35:00,
2013-01-27 02:00:00,20.0,12.0,30.42,SSW,203,2.0,2.0,71,0.00,,,0.00,WUHU216HW,2013-01-27 08:00:00,
2013-01-27 02:05:00,20.0,12.0,30.42,SSW,203,2.0,2.0,71,0.00,,,0.00,WUHU216HW,2013-01-27 08:05:00,
2013-01-27 02:30:00,20.0,12.3,30.41,SSE,158,1.1,1.1,72,0.00,,,0.00,WUHU216HW,2013-01-27 08:30:00,
2013-01-27 02:35:00,20.0,12.3,30.41,SSE,158,1.1,1.1,72,0.00,,,0.00,WUHU216HW,2013-01-27 08:35:00,
2013-01-27 03:00:00,20.0,12.6,30.41,SE,135,3.8,3.8,73,0.00,,,0.00,WUHU216HW,2013-01-27 09:00:00,
2013-01-27 03:05:00,20.0,12.6,30.41,SE,135,3.8,3.8,73,0.00,,,0.00,WUHU216HW,2013-01-27 09:05:00,
2013-01-27 03:30:00,20.0,13.0,30.40,SSE,158,1.8,1.8,74,0.00,,,0.00,WUHU216HW,2013-01-27 09:30:00,
2013-01-27 03:35:00,20.0,13.0,30.40,SSE,158,1.8,1.8,74,0.00,,,0.00,WUHU216HW,2013-01-27 09:35:00,
2013-01-27 04:00:00,20.2,13.2,30.39,SSW,203,3.8,3.8,74,0.00,,,0.00,WUHU216HW,2013-01-27 10:00:00,
2013-01-27 04:05:00,20.2,13.2,30.39,South,180,2.5,3.8,74,0.00,,,0.00,WUHU216HW,2013-01-27 10:05:00,
2013-01-27 04:10:00,20.2,13.2,30.39,South,180,2.5,2.5,74,0.00,,,0.00,WUHU216HW,2013-01-27 10:10:00,
2013-01-27 04:30:00,20.2,13.2,30.38,SE,135,2.9,2.9,74,0.00,,,0.00,WUHU216HW,2013-01-27 10:30:00,
2013-01-27 04:35:00,20.2,13.2,30.38,SE,135,2.9,2.9,74,0.00,,,0.00,WUHU216HW,2013-01-27 10:35:00,
2013-01-27 05:00:00,20.2,13.4,30.37,SSE,158,2.5,2.5,75,0.00,,,0.00,WUHU216HW,2013-01-27 11:00:00,
2013-01-27 05:05:00,20.2,13.4,30.37,SSE,158,2.5,2.5,75,0.00,,,0.00,WUHU216HW,2013-01-27 11:05:00,
2013-01-27 05:10:00,20.2,13.4,30.37,SSE,158,2.5,2.5,75,0.00,,,0.00,WUHU216HW,2013-01-27 11:10:00,
2013-01-27 05:30:00,20.5,13.8,30.36,SE,135,1.1,1.1,75,0.00,,,0.00,WUHU216HW,2013-01-27 11:30:00,
2013-01-27 05:35:00,20.5,13.8,30.36,SE,135,1.1,1.1,75,0.00,,,0.00,WUHU216HW,2013-01-27 11:35:00,
2013-01-27 06:00:00,20.5,13.8,30.36,SSW,203,0.9,0.9,75,0.00,,,0.00,WUHU216HW,2013-01-27 12:00:00,
2013-01-27 06:05:00,20.5,13.8,30.36,SSE,158,2.2,2.2,75,0.00,,,0.00,WUHU216HW,2013-01-27 12:05:00,
2013-01-27 06:10:00,20.5,13.8,30.36,SSE,158,2.2,2.2,75,0.00,,,0.00,WUHU216HW,2013-01-27 12:10:00,
2013-01-27 06:30:00,20.5,13.8,30.36,SSE,158,3.8,3.8,75,0.00,,,0.00,WUHU216HW,2013-01-27 12:30:00,
2013-01-27 06:35:00,20.5,13.8,30.36,SSE,158,3.8,3.8,75,0.00,,,0.00,WUHU216HW,2013-01-27 12:35:00,
2013-01-27 07:00:00,20.5,13.8,30.36,West,270,0.4,0.4,75,0.00,,,0.00,WUHU216HW,2013-01-27 13:00:00,
2013-01-27 07:05:00,20.5,13.8,30.36,West,270,0.4,0.4,75,0.00,,,0.00,WUHU216HW,2013-01-27 13:05:00,
2013-01-27 07:10:00,20.5,13.8,30.36,West,270,0.4,0.4,75,0.00,,,0.00,WUHU216HW,2013-01-27 13:10:00,
2013-01-27 07:30:00,20.9,14.1,30.36,SSE,158,3.4,3.4,75,0.00,,,0.00,WUHU216HW,2013-01-27 13:30:00,
2013-01-27 07:35:00,20.9,14.1,30.36,SSE,158,3.4,3.4,75,0.00,,,0.00,WUHU216HW,2013-01-27 13:35:00,
2013-01-27 08:00:00,21.4,14.7,30.36,SSE,158,3.4,3.4,75,0.00,,,0.00,WUHU216HW,2013-01-27 14:00:00,
2013-01-27 08:05:00,21.4,14.7,30.36,SSE,158,3.4,3.4,75,0.00,,,0.00,WUHU216HW,2013-01-27 14:05:00,
2013-01-27 08:30:00,22.0,15.0,30.36,SSE,158,2.0,2.0,74,0.00,,,0.00,WUHU216HW,2013-01-27 14:30:00,
2013-01-27 08:35:00,22.0,15.0,30.36,SSE,158,2.0,2.0,74,0.00,,,0.00,WUHU216HW,2013-01-27 14:35:00,
2013-01-27 09:00:00,22.9,15.5,30.36,SSE,158,3.8,3.8,73,0.00,,,0.00,WUHU216HW,2013-01-27 15:00:00,
2013-01-27 09:05:00,22.9,15.5,30.36,SSE,158,3.8,3.8,73,0.00,,,0.00,WUHU216HW,2013-01-27 15:05:00,
2013-01-27 09:30:00,24.3,16.2,30.36,SSE,158,4.7,4.7,71,0.00,,,0.00,WUHU216HW,2013-01-27 15:30:00,
2013-01-27 09:35:00,24.3,16.2,30.36,SSE,158,4.7,4.7,71,0.00,,,0.00,WUHU216HW,2013-01-27 15:35:00,
2013-01-27 10:00:00,25.6,17.1,30.36,West,270,2.5,2.5,70,0.00,,,0.00,WUHU216HW,2013-01-27 16:00:00,
2013-01-27 10:05:00,25.6,17.1,30.36,West,270,2.5,2.5,70,0.00,,,0.00,WUHU216HW,2013-01-27 16:05:00,
2013-01-27 10:30:00,26.5,17.6,30.35,SSE,158,6.5,6.5,69,0.00,,,0.00,WUHU216HW,2013-01-27 16:30:00,
2013-01-27 10:35:00,26.5,17.6,30.35,SSE,158,6.5,6.5,69,0.00,,,0.00,WUHU216HW,2013-01-27 16:35:00,
2013-01-27 11:00:00,27.5,18.0,30.33,South,180,3.1,3.1,67,0.00,,,0.00,WUHU216HW,2013-01-27 17:00:00,
2013-01-27 11:05:00,27.5,18.0,30.33,South,180,3.1,3.1,67,0.00,,,0.00,WUHU216HW,2013-01-27 17:05:00,
2013-01-27 11:30:00,28.4,18.2,30.32,SSE,158,4.0,4.0,65,0.00,,,0.00,WUHU216HW,2013-01-27 17:30:00,
2013-01-27 11:35:00,28.4,18.2,30.32,SSE,158,4.0,4.0,65,0.00,,,0.00,WUHU216HW,2013-01-27 17:35:00,
2013-01-27 12:00:00,29.9,19.1,30.31,SE,135,3.6,3.6,64,0.00,,,0.00,WUHU216HW,2013-01-27 18:00:00,
2013-01-27 12:05:00,29.9,19.1,30.31,SE,135,3.6,3.6,64,0.00,,,0.00,WUHU216HW,2013-01-27 18:05:00,
2013-01-27 12:30:00,30.8,19.3,30.30,South,180,2.0,2.0,62,0.00,,,0.00,WUHU216HW,2013-01-27 18:30:00,
2013-01-27 12:35:00,30.8,19.3,30.30,South,180,2.0,2.0,62,0.00,,,0.00,WUHU216HW,2013-01-27 18:35:00,
2013-01-27 13:00:00,31.1,18.9,30.29,SSE,158,4.3,4.3,60,0.00,,,0.00,WUHU216HW,2013-01-27 19:00:00,
2013-01-27 13:05:00,31.1,18.9,30.29,South,180,2.2,4.3,60,0.00,,,0.00,WUHU216HW,2013-01-27 19:05:00,
2013-01-27 13:10:00,31.1,18.9,30.29,South,180,2.2,2.2,60,0.00,,,0.00,WUHU216HW,2013-01-27 19:10:00,
2013-01-27 13:30:00,31.0,19.1,30.28,SSW,203,1.1,1.1,61,0.00,,,0.00,WUHU216HW,2013-01-27 19:30:00,
2013-01-27 13:35:00,31.0,19.1,30.28,SSW,203,1.1,1.1,61,0.00,,,0.00,WUHU216HW,2013-01-27 19:35:00,
2013-01-27 14:00:00,30.8,19.3,30.26,SSE,158,2.7,2.7,62,0.00,,,0.00,WUHU216HW,2013-01-27 20:00:00,
2013-01-27 14:05:00,30.8,19.3,30.26,SSE,158,2.7,2.7,62,0.00,,,0.00,WUHU216HW,2013-01-27 20:05:00,
2013-01-27 14:10:00,30.8,19.3,30.26,SSE,158,2.7,2.7,62,0.00,,,0.00,WUHU216HW,2013-01-27 20:10:00,
2013-01-27 14:30:00,30.2,19.8,30.26,SW,225,3.4,3.4,65,0.00,,,0.00,WUHU216HW,2013-01-27 20:30:00,
2013-01-27 14:35:00,30.2,19.8,30.26,SW,225,3.4,3.4,65,0.00,,,0.00,WUHU216HW,2013-01-27 20:35:00,
2013-01-27 15:00:00,28.6,21.7,30.25,South,180,5.4,5.4,75,0.00,,,0.00,WUHU216HW,2013-01-27 21:00:00,
2013-01-27 15:05:00,28.6,21.7,30.25,SSE,158,4.5,5.4,75,0.00,,,0.00,WUHU216HW,2013-01-27 21:05:00,
2013-01-27 15:10:00,28.6,21.7,30.25,SSE,158,4.5,4.5,75,0.00,,,0.00,WUHU216HW,2013-01-27 21:10:00,
2013-01-27 15:30:00,28.1,23.0,30.25,SSE,158,5.6,5.6,81,0.00,,,0.00,WUHU216HW,2013-01-27 21:30:00,
2013-01-27 15:35:00,28.1,23.0,30.25,SSE,158,5.6,5.6,81,0.00,,,0.00,WUHU216HW,2013-01-27 21:35:00,
2013-01-27 16:00:00,28.1,23.6,30.24,SE,135,4.0,4.0,83,0.00,,,0.00,WUHU216HW,2013-01-27 22:00:00,
2013-01-27 16:05:00,28.1,23.6,30.24,SE,135,4.7,4.7,83,0.00,,,0.00,WUHU216HW,2013-01-27 22:05:00,
2013-01-27 16:10:00,28.1,23.6,30.24,SE,135,4.7,4.7,83,0.00,,,0.00,WUHU216HW,2013-01-27 22:10:00,
2013-01-27 16:30:00,27.7,23.5,30.23,SE,135,6.5,6.5,84,0.00,,,0.00,WUHU216HW,2013-01-27 22:30:00,
2013-01-27 16:35:00,27.7,23.5,30.23,SE,135,6.5,6.5,84,0.00,,,0.00,WUHU216HW,2013-01-27 22:35:00,
2013-01-27 17:00:00,27.2,23.5,30.21,SSE,158,5.1,5.1,86,0.00,,,0.00,WUHU216HW,2013-01-27 23:00:00,
2013-01-27 17:05:00,27.2,23.5,30.21,SSE,158,5.1,5.1,86,0.00,,,0.00,WUHU216HW,2013-01-27 23:05:00,
2013-01-27 17:30:00,27.2,24.1,30.19,ESE,113,7.6,7.6,88,0.00,,,0.00,WUHU216HW,2013-01-27 23:30:00,
2013-01-27 17:35:00,27.2,24.1,30.19,ESE,113,7.6,7.6,88,0.00,,,0.00,WUHU216HW,2013-01-27 23:35:00,
2013-01-27 18:00:00,27.2,24.1,30.18,ESE,113,5.4,5.4,88,0.00,,,0.00,WUHU216HW,2013-01-28 00:00:00,
2013-01-27 18:05:00,27.2,24.1,30.18,ESE,113,5.4,5.4,88,0.00,,,0.00,WUHU216HW,2013-01-28 00:05:00,
2013-01-27 18:30:00,27.2,24.4,30.17,ESE,113,5.1,5.1,89,0.00,,,0.00,WUHU216HW,2013-01-28 00:30:00,
2013-01-27 18:35:00,27.2,24.4,30.17,ESE,113,5.1,5.1,89,0.00,,,0.00,WUHU216HW,2013-01-28 00:35:00,
2013-01-27 19:00:00,27.2,24.4,30.16,SE,135,6.9,6.9,89,0.00,,,0.00,WUHU216HW,2013-01-28 01:00:00,
2013-01-27 19:05:00,27.2,24.4,30.16,SE,135,6.9,6.9,89,0.00,,,0.00,WUHU216HW,2013-01-28 01:05:00,
2013-01-27 19:30:00,27.2,24.1,30.15,SE,135,4.7,4.7,88,0.00,,,0.00,WUHU216HW,2013-01-28 01:30:00,
2013-01-27 19:35:00,27.2,24.1,30.15,SE,135,4.7,4.7,88,0.00,,,0.00,WUHU216HW,2013-01-28 01:35:00,
2013-01-27 20:00:00,27.0,24.0,30.14,SE,135,5.4,5.4,88,0.00,,,0.00,WUHU216HW,2013-01-28 02:00:00,
2013-01-27 20:05:00,27.0,24.0,30.14,SE,135,5.4,5.4,88,0.00,,,0.00,WUHU216HW,2013-01-28 02:05:00,
2013-01-27 20:30:00,27.0,24.0,30.13,SE,135,6.3,6.3,88,0.00,,,0.00,WUHU216HW,2013-01-28 02:30:00,
2013-01-27 20:35:00,27.0,24.0,30.13,SE,135,6.3,6.3,88,0.00,,,0.00,WUHU216HW,2013-01-28 02:35:00,
2013-01-27 21:00:00,27.0,24.2,30.12,SE,135,4.7,4.7,89,0.00,,,0.00,WUHU216HW,2013-01-28 03:00:00,
2013-01-27 21:05:00,27.0,24.2,30.12,SE,135,4.7,4.7,89,0.00,,,0.00,WUHU216HW,2013-01-28 03:05:00,
2013-01-27 21:30:00,27.2,24.1,30.11,ESE,113,2.5,2.5,88,0.00,,,0.00,WUHU216HW,2013-01-28 03:30:00,
2013-01-27 21:35:00,27.2,24.1,30.11,ESE,113,2.5,2.5,88,0.00,,,0.00,WUHU216HW,2013-01-28 03:35:00,
2013-01-27 22:00:00,27.5,24.8,30.11,ESE,113,2.5,2.5,89,0.00,,,0.00,WUHU216HW,2013-01-28 04:00:00,
2013-01-27 22:05:00,27.5,24.8,30.11,ESE,113,2.5,2.5,89,0.00,,,0.00,WUHU216HW,2013-01-28 04:05:00,
2013-01-27 22:30:00,27.9,25.7,30.10,ESE,113,2.2,2.2,91,0.00,,,0.00,WUHU216HW,2013-01-28 04:30:00,
2013-01-27 22:35:00,27.9,25.7,30.10,ESE,113,2.2,2.2,91,0.00,,,0.00,WUHU216HW,2013-01-28 04:35:00,
2013-01-27 23:00:00,28.3,26.0,30.08,ESE,113,2.5,2.5,91,0.00,,,0.00,WUHU216HW,2013-01-28 05:00:00,
2013-01-27 23:01:00,28.3,26.0,30.08,SE,135,2.5,2.5,91,0.00,,,0.00,WUHU216HW,2013-01-28 05:01:00,
2013-01-27 23:02:00,28.3,26.0,30.08,SE,135,2.5,2.5,91,0.00,,,0.00,WUHU216HW,2013-01-28 05:02:00,
2013-01-27 23:07:00,28.3,26.0,30.08,SE,135,2.5,2.5,91,0.00,,,0.00,WUHU216HW,2013-01-28 05:07:00,
2013-01-27 23:30:00,28.6,26.4,30.08,SE,135,1.8,1.8,91,0.00,,,0.00,WUHU216HW,2013-01-28 05:30:00,
2013-01-27 23:35:00,28.6,26.4,30.08,SE,135,1.8,1.8,91,0.00,,,0.00,WUHU216HW,2013-01-28 05:35:00,